createdAt,value
2019-02-22T00:02:22.070Z,43.20
2019-02-22T00:07:25.150Z,40.38
2019-02-22T00:12:28.558Z,40.30
2019-02-22T00:17:32.206Z,41.43
2019-02-22T00:22:35.613Z,40.40
2019-02-22T00:27:39.369Z,40.20
2019-02-22T00:32:42.795Z,40.77
2019-02-22T00:37:46.590Z,42.03
2019-02-22T00:42:50.446Z,41.43
2019-02-22T00:47:54.064Z,41.87
2019-02-22T00:52:57.138Z,42.67
2019-02-22T00:58:00.547Z,43.77
2019-02-22T01:03:03.638Z,43.03
2019-02-22T01:08:07.050Z,42.93
2019-02-22T01:13:10.455Z,43.13
2019-02-22T01:18:13.864Z,42.17
2019-02-22T01:23:17.266Z,43.63
2019-02-22T01:28:20.939Z,41.33
2019-02-22T01:33:25.496Z,42.83
2019-02-22T01:38:28.902Z,43.87
2019-02-22T01:43:33.452Z,47.00
2019-02-22T01:48:37.142Z,44.53
2019-02-22T01:53:40.231Z,45.50
2019-02-22T01:58:48.835Z,47.60
2019-02-22T02:03:48.863Z,47.38
2019-02-22T02:08:52.605Z,45.90
2019-02-22T02:13:55.714Z,43.10
2019-02-22T02:18:59.399Z,45.17
2019-02-22T02:24:03.153Z,46.23
2019-02-22T02:29:06.215Z,44.93
2019-02-22T02:34:09.285Z,44.80
2019-02-22T02:39:12.682Z,47.63
2019-02-22T02:44:16.094Z,46.57
2019-02-22T02:49:19.787Z,46.40
2019-02-22T02:54:23.514Z,45.23
2019-02-22T02:59:27.230Z,45.33
2019-02-22T03:04:30.640Z,44.63
2019-02-22T03:09:33.730Z,43.63
2019-02-22T03:14:37.474Z,44.67
2019-02-22T03:19:40.844Z,44.70
2019-02-22T03:24:44.282Z,44.53
2019-02-22T03:29:47.683Z,44.73
2019-02-22T03:34:50.773Z,42.77
2019-02-22T03:39:54.159Z,41.73
2019-02-22T03:44:57.566Z,40.93
2019-02-22T03:50:00.647Z,43.13
2019-02-22T03:55:04.609Z,42.47
2019-02-22T04:00:09.956Z,42.80
2019-02-22T04:05:13.289Z,44.80
2019-02-22T04:10:16.388Z,44.13
2019-02-22T04:15:19.797Z,42.40
2019-02-22T04:20:22.958Z,43.43
2019-02-22T04:25:26.044Z,43.27
2019-02-22T04:30:29.498Z,41.70
2019-02-22T04:35:33.251Z,41.87
2019-02-22T04:40:36.664Z,40.97
2019-02-22T04:45:40.076Z,40.60
2019-02-22T04:50:43.493Z,41.53
2019-02-22T04:55:46.912Z,43.50
2019-02-22T05:00:50.012Z,41.57
2019-02-22T05:05:53.190Z,42.10
2019-02-22T05:10:56.701Z,39.83
2019-02-22T05:16:00.056Z,37.90
2019-02-22T05:21:03.163Z,38.37
2019-02-22T05:26:06.245Z,38.63
2019-02-22T05:31:09.948Z,39.13
2019-02-22T05:36:13.668Z,40.10
2019-02-22T05:41:16.820Z,38.53
2019-02-22T05:46:19.925Z,38.13
2019-02-22T05:51:23.579Z,37.47
2019-02-22T05:56:26.994Z,36.53
2019-02-22T06:01:30.455Z,37.43
2019-02-22T06:06:33.884Z,36.47
2019-02-22T06:11:37.306Z,37.67
2019-02-22T06:16:42.663Z,38.60
2019-02-22T06:21:46.098Z,38.25
2019-02-22T06:26:49.187Z,39.03
2019-02-22T06:31:52.292Z,37.47
2019-02-22T06:37:01.861Z,40.90
2019-02-22T06:42:00.203Z,39.17
2019-02-22T06:47:03.307Z,39.03
2019-02-22T06:52:06.396Z,39.47
2019-02-22T06:57:09.827Z,40.00
2019-02-22T07:02:13.203Z,41.67
2019-02-22T07:07:16.295Z,41.70
2019-02-22T07:12:24.328Z,42.70
2019-02-22T07:17:27.746Z,42.50
2019-02-22T07:22:31.163Z,43.63
2019-02-22T07:27:34.871Z,44.23
2019-02-22T07:32:37.990Z,45.10
2019-02-22T07:37:41.407Z,45.37
2019-02-22T07:42:44.837Z,44.50
2019-02-22T07:47:47.941Z,43.50
2019-02-22T07:52:51.345Z,42.83
2019-02-22T07:57:54.772Z,42.97
2019-02-22T08:02:58.478Z,40.60
2019-02-22T08:08:01.961Z,42.57
2019-02-22T08:13:05.051Z,42.17
2019-02-22T08:18:08.490Z,43.10
2019-02-22T08:23:11.833Z,42.50
2019-02-22T08:28:15.311Z,41.97
2019-02-22T08:33:18.767Z,43.40
2019-02-22T08:38:22.180Z,41.97
2019-02-22T08:43:31.684Z,41.17
2019-02-22T08:48:30.753Z,43.57
2019-02-22T08:53:33.837Z,43.63
2019-02-22T08:58:36.922Z,42.13
2019-02-22T09:03:49.732Z,44.43
2019-02-22T09:08:45.492Z,43.73
2019-02-22T09:13:48.849Z,42.70
2019-02-22T09:18:52.259Z,38.90
2019-02-22T09:23:55.676Z,40.57
2019-02-22T09:28:59.102Z,39.00
2019-02-22T09:34:02.527Z,35.43
2019-02-22T09:39:07.144Z,35.20
2019-02-22T09:44:10.859Z,33.47
2019-02-22T09:49:14.582Z,31.93
2019-02-22T09:54:18.303Z,29.63
2019-02-22T09:59:21.732Z,28.90
2019-02-22T10:04:25.458Z,28.57
2019-02-22T10:09:28.875Z,29.53
2019-02-22T10:14:32.301Z,28.57
2019-02-22T10:19:35.451Z,26.43
2019-02-22T10:24:38.882Z,24.40
2019-02-22T10:29:42.362Z,25.27
2019-02-22T10:34:45.800Z,22.97
2019-02-22T10:39:49.151Z,21.10
2019-02-22T10:44:52.567Z,23.80
2019-02-22T10:49:56.290Z,25.67
2019-02-22T10:54:59.380Z,22.83
2019-02-22T11:00:02.886Z,21.10
2019-02-22T11:05:06.622Z,19.33
2019-02-22T11:10:12.108Z,20.00
2019-02-22T11:15:15.976Z,19.30
2019-02-22T11:20:19.440Z,19.53
2019-02-22T11:25:23.152Z,19.83
2019-02-22T11:30:26.814Z,18.93
2019-02-22T11:35:30.199Z,19.93
2019-02-22T11:40:33.798Z,18.63
2019-02-22T11:45:37.314Z,17.30
2019-02-22T11:50:40.787Z,17.80
2019-02-22T11:55:43.875Z,18.35
2019-02-22T12:00:47.422Z,17.17
2019-02-22T12:05:50.896Z,15.40
2019-02-22T12:10:53.987Z,14.80
2019-02-22T12:15:57.088Z,15.13
2019-02-22T12:21:00.531Z,16.97
2019-02-22T12:26:03.955Z,16.63
2019-02-22T12:31:07.435Z,15.33
2019-02-22T12:36:10.523Z,12.80
2019-02-22T12:41:14.280Z,10.40
2019-02-22T12:46:17.697Z,10.27
2019-02-22T12:51:21.112Z,9.90
2019-02-22T12:56:56.091Z,9.37
2019-02-22T13:01:30.791Z,9.50
2019-02-22T13:06:34.128Z,9.50
2019-02-22T13:11:37.536Z,9.03
2019-02-22T13:16:40.622Z,9.17
2019-02-22T13:21:43.711Z,8.43
2019-02-22T13:26:47.465Z,8.87
2019-02-22T13:31:53.243Z,8.63
2019-02-22T13:36:56.034Z,8.90
2019-02-22T13:41:59.614Z,8.08
2019-02-22T13:47:03.320Z,6.67
2019-02-22T13:52:06.457Z,6.43
2019-02-22T13:57:09.810Z,6.60
2019-02-22T14:02:12.902Z,6.60
2019-02-22T14:07:16.012Z,6.10
2019-02-22T14:12:19.102Z,6.07
2019-02-22T14:17:22.625Z,6.57
2019-02-22T14:22:26.408Z,4.17
2019-02-22T14:27:29.795Z,3.27
2019-02-22T14:32:33.480Z,3.50
2019-02-22T14:37:37.158Z,3.20
2019-02-22T14:42:40.500Z,3.60
2019-02-22T14:47:43.615Z,3.90
2019-02-22T14:52:47.381Z,4.00
2019-02-22T14:57:50.501Z,3.67
2019-02-22T15:02:53.664Z,4.20
2019-02-22T15:07:57.127Z,4.47
2019-02-22T15:13:00.259Z,4.53
2019-02-22T15:18:04.762Z,4.33
2019-02-22T15:23:08.463Z,4.20
2019-02-22T15:28:11.960Z,4.40
2019-02-22T15:33:15.308Z,4.43
2019-02-22T15:38:18.728Z,4.30
2019-02-22T15:43:22.048Z,4.00
2019-02-22T15:48:25.456Z,3.90
2019-02-22T15:53:28.856Z,3.93
2019-02-22T15:58:31.929Z,3.83
2019-02-22T16:03:48.612Z,3.40
2019-02-22T16:08:51.677Z,3.50
2019-02-22T16:13:54.798Z,3.30
2019-02-22T16:18:57.920Z,3.40
2019-02-22T16:24:01.336Z,3.17
2019-02-22T16:29:04.672Z,3.27
2019-02-22T16:34:07.761Z,3.50
2019-02-22T16:39:10.814Z,3.40
2019-02-22T16:44:14.174Z,3.77
2019-02-22T16:49:17.888Z,3.80
2019-02-22T16:54:20.951Z,3.40
2019-02-22T16:59:24.332Z,3.60
2019-02-22T17:04:27.731Z,3.77
2019-02-22T17:09:33.240Z,3.90
2019-02-22T17:14:36.299Z,3.53
2019-02-22T17:19:39.966Z,4.03
2019-02-22T17:24:43.427Z,4.03
2019-02-22T17:29:46.482Z,4.70
2019-02-22T17:34:50.144Z,4.20
2019-02-22T17:39:53.870Z,4.57
2019-02-22T17:44:57.606Z,4.83
2019-02-22T17:50:00.986Z,4.73
2019-02-22T17:55:05.564Z,4.53
2019-02-22T18:00:16.386Z,3.73
2019-02-22T18:05:19.885Z,3.80
2019-02-22T18:10:23.302Z,4.23
2019-02-22T18:15:26.708Z,4.93
2019-02-22T18:20:30.103Z,4.53
2019-02-22T18:25:33.498Z,4.50
2019-02-22T18:30:36.845Z,4.57
2019-02-22T18:35:40.555Z,4.67
2019-02-22T18:40:43.955Z,4.73
2019-02-22T18:45:47.087Z,5.20
2019-02-22T18:50:50.487Z,7.83
2019-02-22T18:55:53.936Z,8.70
2019-02-22T19:00:57.635Z,8.03
2019-02-22T19:06:01.360Z,6.77
2019-02-22T19:11:04.674Z,6.13
2019-02-22T19:16:08.096Z,6.47
2019-02-22T19:21:11.189Z,5.62
2019-02-22T19:26:14.310Z,5.10
2019-02-22T19:31:18.480Z,5.53
2019-02-22T19:36:21.936Z,6.60
2019-02-22T19:41:25.263Z,6.10
2019-02-22T19:46:28.598Z,6.20
2019-02-22T19:51:31.667Z,6.07
2019-02-22T19:56:35.400Z,6.07
2019-02-22T20:01:38.786Z,6.97
2019-02-22T20:06:42.191Z,6.23
2019-02-22T20:11:48.011Z,7.00
2019-02-22T20:16:50.607Z,6.73
2019-02-22T20:21:54.309Z,6.63
2019-02-22T20:26:57.707Z,7.00
2019-02-22T20:32:00.778Z,6.93
2019-02-22T20:37:04.218Z,8.20
2019-02-22T20:42:07.303Z,8.30
2019-02-22T20:47:10.373Z,8.00
2019-02-22T20:52:14.117Z,8.77
2019-02-22T20:57:17.931Z,8.50
2019-02-22T21:02:21.632Z,8.80
2019-02-22T21:07:25.367Z,8.90
2019-02-22T21:12:29.101Z,9.07
2019-02-22T21:17:32.494Z,9.30
2019-02-22T21:22:35.954Z,9.87
2019-02-22T21:27:39.030Z,9.90
2019-02-22T21:32:42.431Z,9.67
2019-02-22T21:37:45.503Z,9.57
2019-02-22T21:42:49.164Z,10.57
2019-02-22T21:47:55.416Z,10.27
2019-02-22T21:52:58.026Z,10.97
2019-02-22T21:58:01.428Z,10.60
2019-02-22T22:03:05.171Z,10.90
2019-02-22T22:08:08.579Z,11.77
2019-02-22T22:13:12.317Z,11.83
2019-02-22T22:18:16.038Z,11.40
2019-02-22T22:23:19.111Z,11.23
2019-02-22T22:28:22.518Z,11.03
2019-02-22T22:33:26.176Z,11.03
2019-02-22T22:38:29.925Z,11.43
2019-02-22T22:43:33.340Z,10.60
2019-02-22T22:48:37.048Z,11.37
2019-02-22T22:53:40.122Z,10.93
2019-02-22T22:58:43.874Z,10.83
2019-02-22T23:03:47.195Z,11.10
2019-02-22T23:08:51.827Z,10.77
2019-02-22T23:13:55.291Z,11.60
2019-02-22T23:19:01.940Z,11.53
2019-02-22T23:24:03.462Z,11.27
2019-02-22T23:29:06.827Z,11.17
2019-02-22T23:34:10.234Z,10.73
2019-02-22T23:39:13.632Z,10.33
2019-02-22T23:44:16.721Z,11.00
2019-02-22T23:49:20.364Z,10.93
2019-02-22T23:54:23.437Z,9.87
2019-02-22T23:59:26.502Z,9.90
